Time;durP1;ratioP1;P1;durP2;ratioP2;P2;SDS_P1;SDS_P2;PMS_P1;PMS_P2;Temp;Humidity;BMP_temperature;BMP_pressure;BME280_temperature;BME280_humidity;BME280_pressure;Samples;Min_cycle;Max_cycle;Signal;HPM_P1;HPM_P2
2022/01/31 00:02:22;;;;;;;4.70;1.00;;;;;;;1.73;66.43;99992.41;5046664;28;20057;-59
2022/01/31 00:04:49;;;;;;;2.03;0.73;;;;;;;1.78;66.92;100001.00;5048285;28;20052;-59
2022/01/31 00:07:15;;;;;;;2.70;0.55;;;;;;;1.82;66.76;100001.91;5047136;28;20072;-59
2022/01/31 00:09:42;;;;;;;5.28;0.90;;;;;;;1.87;66.81;99998.59;5046156;28;20421;-58
2022/01/31 00:12:11;;;;;;;3.28;0.60;;;;;;;1.90;68.41;99997.78;5048257;28;20072;-58
2022/01/31 00:14:42;;;;;;;2.60;1.00;;;;;;;1.92;69.17;99995.25;5047460;28;20098;-58
2022/01/31 00:17:10;;;;;;;4.32;0.88;;;;;;;1.93;70.23;99999.50;5046348;28;20127;-58
2022/01/31 00:19:37;;;;;;;3.83;1.00;;;;;;;1.93;70.81;99991.84;5047077;28;20060;-58
2022/01/31 00:22:04;;;;;;;3.97;1.30;;;;;;;1.90;70.92;99990.97;5047992;28;20505;-58
2022/01/31 00:24:31;;;;;;;2.67;0.77;;;;;;;1.92;71.32;99990.97;5045993;28;20052;-58
2022/01/31 00:26:57;;;;;;;5.65;1.42;;;;;;;1.94;70.99;99985.91;5050909;28;20048;-59
2022/01/31 00:29:24;;;;;;;4.85;1.00;;;;;;;1.96;70.92;99985.06;5048883;28;20049;-59
2022/01/31 00:31:52;;;;;;;3.30;0.60;;;;;;;1.98;71.02;99978.28;5047283;28;20045;-59
2022/01/31 00:34:18;;;;;;;7.78;0.60;;;;;;;1.99;71.23;99985.13;5046102;28;20053;-59
2022/01/31 00:36:45;;;;;;;3.30;0.82;;;;;;;2.02;71.12;99984.31;5046248;28;20044;-59
2022/01/31 00:39:11;;;;;;;4.05;0.90;;;;;;;2.02;70.93;99977.50;5045974;28;20056;-58
2022/01/31 00:41:38;;;;;;;3.30;0.75;;;;;;;2.05;71.19;99974.13;5047706;28;20045;-58
2022/01/31 00:44:17;;;;;;;2.67;1.20;;;;;;;2.06;70.97;99970.72;5045877;28;20395;-58
2022/01/31 00:46:49;;;;;;;2.03;0.95;;;;;;;2.07;71.28;99967.34;5045734;28;23580;-58
2022/01/31 00:49:27;;;;;;;4.25;1.70;;;;;;;2.06;71.43;99956.25;5046480;28;20049;-58
2022/01/31 00:51:53;;;;;;;3.50;0.88;;;;;;;2.05;71.50;99958.78;5045551;28;20049;-59
2022/01/31 00:54:20;;;;;;;4.70;1.17;;;;;;;2.02;70.88;99951.94;5046362;28;20481;-61
2022/01/31 00:56:46;;;;;;;5.20;1.08;;;;;;;1.99;70.37;99951.03;5045362;28;20063;-59
2022/01/31 00:59:13;;;;;;;2.90;1.10;;;;;;;1.95;70.11;99951.84;5050206;28;20052;-59
2022/01/31 01:01:39;;;;;;;4.93;1.17;;;;;;;1.86;69.68;99948.31;5050227;28;20056;-58
2022/01/31 01:04:06;;;;;;;4.63;0.98;;;;;;;1.81;69.37;99946.53;5046714;28;20056;-59
2022/01/31 01:06:34;;;;;;;4.25;0.95;;;;;;;1.75;69.43;99944.75;5045476;28;20124;-59
2022/01/31 01:09:00;;;;;;;2.97;0.63;;;;;;;1.69;68.92;99934.44;5046317;28;20041;-58
2022/01/31 01:11:27;;;;;;;4.00;0.93;;;;;;;1.66;68.89;99939.50;5045579;28;20060;-59
2022/01/31 01:13:53;;;;;;;4.53;0.52;;;;;;;1.63;69.11;99928.38;5046351;28;20071;-59
2022/01/31 01:16:19;;;;;;;3.85;0.93;;;;;;;1.60;68.72;99929.19;5047068;28;20042;-59
2022/01/31 01:18:46;;;;;;;4.60;0.68;;;;;;;1.57;68.92;99924.06;5046356;28;20052;-59
2022/01/31 01:21:12;;;;;;;4.32;0.70;;;;;;;1.54;68.77;99919.72;5045528;28;20053;-59
2022/01/31 01:23:40;;;;;;;4.85;0.60;;;;;;;1.49;68.43;99915.38;5046956;28;20048;-59
2022/01/31 01:26:08;;;;;;;3.55;0.60;;;;;;;1.45;68.48;99908.50;5046139;28;20501;-58
2022/01/31 01:28:34;;;;;;;6.45;1.13;;;;;;;1.42;68.23;99901.66;5046430;28;20048;-59
2022/01/31 01:31:01;;;;;;;3.10;0.77;;;;;;;1.39;68.29;99903.31;5046432;28;20045;-59
2022/01/31 01:33:28;;;;;;;3.72;1.05;;;;;;;1.36;68.47;99906.69;5047766;28;20140;-59
2022/01/31 01:35:55;;;;;;;3.20;0.75;;;;;;;1.33;68.40;99903.22;5045996;28;20045;-58
2022/01/31 01:38:28;;;;;;;3.85;0.60;;;;;;;1.29;68.53;99901.47;5046653;28;20113;-59
2022/01/31 01:40:57;;;;;;;1.48;0.50;;;;;;;1.25;68.72;99906.50;5045150;28;20045;-59
2022/01/31 01:43:24;;;;;;;4.07;0.70;;;;;;;1.23;68.42;99910.75;5047010;28;20049;-59
2022/01/31 01:45:52;;;;;;;3.60;0.70;;;;;;;1.19;68.66;99908.97;5045338;28;20516;-58
2022/01/31 01:48:19;;;;;;;2.55;1.10;;;;;;;1.17;68.95;99913.19;5045753;28;20053;-59
2022/01/31 01:50:46;;;;;;;4.80;0.65;;;;;;;1.14;68.88;99913.16;5044711;28;20048;-58
2022/01/31 01:53:13;;;;;;;3.47;0.82;;;;;;;1.13;68.88;99900.34;5045631;28;20052;-59
2022/01/31 01:55:39;;;;;;;4.20;0.90;;;;;;;1.11;69.10;99908.00;5047303;28;20065;-58
2022/01/31 01:58:14;;;;;;;4.45;0.65;;;;;;;1.09;69.23;99898.59;5045131;28;20052;-59
2022/01/31 02:00:49;;;;;;;3.85;0.60;;;;;;;1.08;69.27;99900.28;5045117;28;20821;-59
2022/01/31 02:03:16;;;;;;;3.20;0.50;;;;;;;1.05;69.36;99887.47;5047050;28;20040;-59
2022/01/31 02:05:43;;;;;;;3.45;0.82;;;;;;;1.00;69.03;99883.97;5045609;28;20053;-59
2022/01/31 02:08:12;;;;;;;3.83;0.95;;;;;;;0.95;69.34;99888.13;5045696;28;20060;-59
2022/01/31 02:10:40;;;;;;;2.72;1.08;;;;;;;0.92;69.29;99885.53;5046642;28;20516;-58
2022/01/31 02:13:10;;;;;;;2.60;0.63;;;;;;;0.90;69.49;99882.09;5045894;28;20069;-59
2022/01/31 02:15:37;;;;;;;1.83;0.52;;;;;;;0.89;69.82;99888.03;5045795;28;20127;-59
2022/01/31 02:18:04;;;;;;;3.75;0.85;;;;;;;0.85;69.70;99878.59;5043382;28;20053;-59
2022/01/31 02:20:31;;;;;;;2.88;0.45;;;;;;;0.82;69.80;99884.50;5044629;28;20052;-59
2022/01/31 02:22:59;;;;;;;2.10;0.73;;;;;;;0.80;69.90;99872.56;5045026;28;20056;-58
2022/01/31 02:25:25;;;;;;;2.30;0.70;;;;;;;0.79;70.00;99887.00;5045845;28;20139;-59
2022/01/31 02:27:52;;;;;;;2.47;0.60;;;;;;;0.78;70.01;99887.00;5044759;28;20064;-58
2022/01/31 02:30:18;;;;;;;3.95;0.75;;;;;;;0.77;70.42;99880.16;5047364;28;20056;-59
2022/01/31 02:32:46;;;;;;;3.25;0.60;;;;;;;0.75;70.26;99881.84;5045788;28;20057;-59
2022/01/31 02:35:13;;;;;;;3.40;1.10;;;;;;;0.74;70.43;99890.31;5044109;28;20063;-59
2022/01/31 02:37:39;;;;;;;4.22;1.38;;;;;;;0.72;70.38;99886.88;5043835;28;20053;-59
2022/01/31 02:40:08;;;;;;;4.00;1.15;;;;;;;0.67;70.34;99884.25;5044494;28;20057;-59
2022/01/31 02:42:35;;;;;;;3.35;0.88;;;;;;;0.66;70.51;99881.69;5044674;28;20045;-59
2022/01/31 02:45:03;;;;;;;2.70;0.70;;;;;;;0.62;70.70;99886.72;5043617;28;20053;-59
2022/01/31 02:47:35;;;;;;;7.00;1.40;;;;;;;0.61;70.63;99884.16;5044481;28;20242;-59
2022/01/31 02:50:06;;;;;;;5.28;1.35;;;;;;;0.59;70.67;99886.66;5043922;28;20149;-59
2022/01/31 02:52:35;;;;;;;3.55;0.88;;;;;;;0.57;70.71;99883.22;5044896;28;20056;-59
2022/01/31 02:55:03;;;;;;;5.80;1.50;;;;;;;0.55;70.68;99879.78;5046291;28;20064;-59
2022/01/31 02:57:31;;;;;;;4.85;1.40;;;;;;;0.53;70.81;99878.06;5042976;28;20053;-58
2022/01/31 02:59:57;;;;;;;3.80;1.30;;;;;;;0.50;70.93;99873.72;5048950;28;20583;-59
2022/01/31 03:02:24;;;;;;;5.38;1.02;;;;;;;0.47;70.93;99875.34;5047467;28;20524;-59
2022/01/31 03:04:50;;;;;;;3.55;0.68;;;;;;;0.46;71.17;99866.00;5048481;28;20726;-59
2022/01/31 03:07:16;;;;;;;3.45;0.90;;;;;;;0.44;71.06;99868.50;5047921;28;20056;-58
2022/01/31 03:09:43;;;;;;;6.18;1.00;;;;;;;0.44;71.09;99873.63;5048676;28;20052;-59
2022/01/31 03:12:10;;;;;;;5.75;0.75;;;;;;;0.43;71.33;99879.53;5050180;28;20099;-59
2022/01/31 03:14:40;;;;;;;9.60;1.10;;;;;;;0.39;71.32;99874.34;5050886;28;20049;-59
2022/01/31 03:17:07;;;;;;;3.83;0.82;;;;;;;0.37;71.65;99871.78;5048279;28;20444;-59
2022/01/31 03:19:33;;;;;;;6.60;1.20;;;;;;;0.35;71.68;99875.13;5048446;28;20053;-58
2022/01/31 03:22:00;;;;;;;4.28;0.65;;;;;;;0.34;71.78;99874.28;5048899;28;20077;-59
2022/01/31 03:24:26;;;;;;;3.42;0.82;;;;;;;0.33;71.76;99872.56;5046964;28;20544;-59
2022/01/31 03:26:53;;;;;;;3.20;0.90;;;;;;;0.34;71.81;99878.50;5050145;28;20052;-58
2022/01/31 03:29:19;;;;;;;4.05;0.90;;;;;;;0.33;71.90;99882.75;5048499;28;20057;-59
2022/01/31 03:31:47;;;;;;;3.33;0.65;;;;;;;0.31;72.00;99884.41;5047313;28;20432;-59
2022/01/31 03:34:13;;;;;;;7.18;0.77;;;;;;;0.30;72.07;99878.47;5047925;28;20056;-59
2022/01/31 03:36:40;;;;;;;1.52;0.60;;;;;;;0.29;72.15;99879.28;5049354;28;20406;-59
2022/01/31 03:39:06;;;;;;;4.55;0.95;;;;;;;0.29;72.07;99881.84;5047642;28;20060;-59
2022/01/31 03:41:33;;;;;;;4.38;0.95;;;;;;;0.28;72.21;99885.22;5047147;28;20063;-59
2022/01/31 03:43:59;;;;;;;3.08;0.70;;;;;;;0.29;72.27;99881.84;5050396;28;20540;-59
2022/01/31 03:46:26;;;;;;;3.28;0.88;;;;;;;0.28;72.26;99875.03;5048885;28;20599;-58
2022/01/31 03:48:54;;;;;;;5.57;1.00;;;;;;;0.27;72.70;99882.63;5048201;28;20056;-59
2022/01/31 03:51:20;;;;;;;5.18;1.40;;;;;;;0.27;72.55;99877.53;5048284;28;20045;-59
2022/01/31 03:53:47;;;;;;;7.78;1.13;;;;;;;0.26;72.76;99875.81;5048377;28;20045;-59
2022/01/31 03:56:14;;;;;;;7.45;0.80;;;;;;;0.27;72.72;99857.16;5047970;28;20135;-59
2022/01/31 03:58:41;;;;;;;4.45;0.75;;;;;;;0.27;72.94;99860.56;5047562;28;20045;-59
2022/01/31 04:01:07;;;;;;;5.65;1.20;;;;;;;0.27;72.76;99863.09;5046677;28;20096;-59
2022/01/31 04:03:34;;;;;;;3.35;1.00;;;;;;;0.27;72.86;99862.25;5048485;28;20045;-58
2022/01/31 04:06:02;;;;;;;12.75;1.30;;;;;;;0.27;72.98;99859.69;5046577;28;20495;-59
2022/01/31 04:08:29;;;;;;;5.03;1.67;;;;;;;0.26;72.71;99866.50;5045204;28;20056;-59
2022/01/31 04:10:55;;;;;;;4.13;1.00;;;;;;;0.23;72.81;99863.03;5046919;28;20048;-59
2022/01/31 04:13:22;;;;;;;2.85;0.65;;;;;;;0.24;73.03;99862.19;5046222;28;20045;-59
2022/01/31 04:15:48;;;;;;;6.60;1.05;;;;;;;0.23;73.14;99865.56;5043626;28;21098;-59
2022/01/31 04:18:15;;;;;;;4.45;0.90;;;;;;;0.22;73.15;99866.41;5045270;28;20045;-59
2022/01/31 04:20:42;;;;;;;6.18;0.90;;;;;;;0.21;73.03;99864.69;5046854;28;20394;-59
2022/01/31 04:23:12;;;;;;;3.95;0.82;;;;;;;0.20;73.17;99865.50;5046873;28;20053;-59
2022/01/31 04:25:45;;;;;;;3.53;0.80;;;;;;;0.18;73.29;99856.97;5047430;28;20045;-60
2022/01/31 04:28:19;;;;;;;4.05;1.27;;;;;;;0.18;73.21;99857.84;5046178;28;20049;-60
2022/01/31 04:30:53;;;;;;;4.35;1.10;;;;;;;0.19;73.22;99858.69;5050799;28;20057;-59
2022/01/31 04:33:20;;;;;;;3.50;0.85;;;;;;;0.19;73.20;99857.00;5048115;28;20045;-59
2022/01/31 04:35:47;;;;;;;4.82;1.50;;;;;;;0.19;73.52;99853.59;5046045;28;21594;-59
2022/01/31 04:38:15;;;;;;;6.28;1.00;;;;;;;0.20;73.21;99845.13;5045083;28;20053;-59
2022/01/31 04:40:42;;;;;;;2.75;0.80;;;;;;;0.22;73.41;99843.47;5044427;28;20060;-60
2022/01/31 04:43:08;;;;;;;3.25;1.30;;;;;;;0.24;73.47;99841.78;5046716;28;20055;-59
2022/01/31 04:45:35;;;;;;;5.05;0.77;;;;;;;0.27;73.47;99842.72;5045158;28;20398;-59
2022/01/31 04:48:01;;;;;;;5.72;1.25;;;;;;;0.29;73.41;99841.06;5048607;28;20056;-59
2022/01/31 04:50:28;;;;;;;4.25;1.67;;;;;;;0.32;73.39;99840.25;5045226;28;20072;-60
2022/01/31 04:52:54;;;;;;;3.13;1.00;;;;;;;0.34;73.26;99843.69;5046212;28;20405;-59
2022/01/31 04:55:22;;;;;;;3.78;0.75;;;;;;;0.36;73.17;99831.81;5044886;28;20624;-59
2022/01/31 04:57:48;;;;;;;6.15;1.10;;;;;;;0.38;73.16;99835.25;5047027;28;20060;-59
2022/01/31 05:00:15;;;;;;;4.68;1.52;;;;;;;0.39;72.52;99824.22;5048998;28;20068;-59
2022/01/31 05:02:42;;;;;;;4.60;1.30;;;;;;;0.41;72.80;99825.13;5046731;28;20048;-59
2022/01/31 05:05:09;;;;;;;4.80;1.02;;;;;;;0.41;72.54;99824.25;5047048;28;20394;-59
2022/01/31 05:07:35;;;;;;;2.78;1.10;;;;;;;0.38;72.30;99825.06;5048201;28;20053;-59
2022/01/31 05:10:02;;;;;;;7.20;1.08;;;;;;;0.40;72.38;99832.75;5046868;28;20045;-59
2022/01/31 05:12:29;;;;;;;6.25;1.20;;;;;;;0.40;72.36;99828.50;5044092;28;20041;-59
2022/01/31 05:14:56;;;;;;;5.65;1.13;;;;;;;0.42;72.32;99828.53;5043734;28;20052;-59
2022/01/31 05:17:22;;;;;;;5.35;1.48;;;;;;;0.41;72.04;99822.56;5046531;28;20068;-59
2022/01/31 05:19:49;;;;;;;6.25;1.33;;;;;;;0.42;71.84;99811.53;5046044;28;20053;-59
2022/01/31 05:22:15;;;;;;;7.28;2.20;;;;;;;0.40;71.89;99823.41;5046488;28;20052;-59
2022/01/31 05:24:42;;;;;;;4.88;1.27;;;;;;;0.41;71.75;99820.00;5046933;28;20044;-59
2022/01/31 05:27:08;;;;;;;7.35;1.25;;;;;;;0.42;71.53;99810.66;5045192;28;20395;-59
2022/01/31 05:29:36;;;;;;;5.65;1.30;;;;;;;0.42;71.52;99814.09;5043652;28;20482;-60
2022/01/31 05:32:03;;;;;;;3.67;1.10;;;;;;;0.39;71.50;99808.94;5045183;28;20053;-59
2022/01/31 05:34:30;;;;;;;5.50;1.60;;;;;;;0.38;71.39;99809.75;5047300;28;20072;-59
2022/01/31 05:36:56;;;;;;;4.65;0.90;;;;;;;0.36;71.29;99808.88;5046492;28;21603;-59
2022/01/31 05:39:23;;;;;;;6.45;1.00;;;;;;;0.35;71.31;99807.16;5046144;28;20053;-59
2022/01/31 05:41:50;;;;;;;5.05;1.00;;;;;;;0.34;71.50;99805.44;5046138;28;20045;-59
2022/01/31 05:44:17;;;;;;;6.00;1.48;;;;;;;0.32;71.31;99799.47;5045184;28;20049;-59
2022/01/31 05:46:45;;;;;;;6.28;1.63;;;;;;;0.31;71.07;99800.28;5044743;28;20112;-59
2022/01/31 05:49:11;;;;;;;9.20;1.70;;;;;;;0.32;71.17;99800.31;5045201;28;20052;-59
2022/01/31 05:51:44;;;;;;;6.72;1.77;;;;;;;0.33;71.13;99796.06;5046841;28;20482;-59
2022/01/31 05:54:10;;;;;;;5.57;1.60;;;;;;;0.35;71.19;99799.50;5045938;28;20044;-59
2022/01/31 05:56:37;;;;;;;4.35;1.23;;;;;;;0.31;71.03;99801.16;5045530;28;20053;-59
2022/01/31 05:59:03;;;;;;;7.30;1.80;;;;;;;0.30;71.03;99801.13;5044960;28;20044;-59
2022/01/31 06:01:30;;;;;;;9.10;1.75;;;;;;;0.31;71.09;99807.94;5044814;28;20521;-59
2022/01/31 06:03:58;;;;;;;7.95;1.80;;;;;;;0.29;71.07;99796.84;5045363;28;20052;-58
2022/01/31 06:06:24;;;;;;;3.42;1.30;;;;;;;0.28;71.07;99797.69;5045779;28;20052;-58
2022/01/31 06:08:51;;;;;;;8.02;1.90;;;;;;;0.25;71.00;99790.84;5046427;28;20068;-59
2022/01/31 06:11:17;;;;;;;7.97;1.70;;;;;;;0.24;71.15;99785.72;5045235;28;20525;-59
2022/01/31 06:13:45;;;;;;;8.38;2.50;;;;;;;0.23;71.05;99794.19;5046468;28;20056;-59
2022/01/31 06:16:12;;;;;;;6.28;1.63;;;;;;;0.19;70.89;99789.88;5047357;28;20063;-59
2022/01/31 06:18:38;;;;;;;7.65;1.80;;;;;;;0.16;70.90;99789.81;5044060;28;20053;-59
2022/01/31 06:21:06;;;;;;;9.90;2.10;;;;;;;0.12;70.75;99782.97;5045790;28;20052;-59
2022/01/31 06:23:33;;;;;;;5.07;1.63;;;;;;;0.10;70.99;99784.63;5042827;28;20409;-59
2022/01/31 06:25:59;;;;;;;7.05;1.90;;;;;;;0.07;71.04;99784.56;5044618;28;20060;-59
2022/01/31 06:28:26;;;;;;;7.47;2.15;;;;;;;0.03;71.11;99786.19;5045453;28;20068;-59
2022/01/31 06:30:52;;;;;;;7.43;1.58;;;;;;;0.02;71.17;99783.63;5043406;28;21416;-59
2022/01/31 06:33:18;;;;;;;7.22;2.13;;;;;;;0.01;71.12;99779.34;5045512;28;20056;-59
2022/01/31 06:35:47;;;;;;;6.10;1.88;;;;;;;-0.01;71.15;99780.16;5049903;28;20474;-59
2022/01/31 06:38:14;;;;;;;6.03;1.80;;;;;;;-0.02;71.24;99783.53;5048550;28;20052;-59
2022/01/31 06:40:41;;;;;;;6.07;1.48;;;;;;;-0.04;71.22;99779.25;5047458;28;20612;-59
2022/01/31 06:43:08;;;;;;;5.25;1.45;;;;;;;-0.05;71.31;99783.47;5048351;28;20040;-59
2022/01/31 06:45:34;;;;;;;6.35;1.73;;;;;;;-0.05;71.32;99788.56;5048617;28;20486;-59
2022/01/31 06:48:01;;;;;;;6.03;2.38;;;;;;;-0.06;71.34;99781.75;5049137;28;20505;-60
2022/01/31 06:50:28;;;;;;;5.50;1.70;;;;;;;-0.07;71.47;99764.75;5051489;28;20060;-59
2022/01/31 06:52:56;;;;;;;9.00;1.83;;;;;;;-0.06;71.45;99766.47;5047492;28;20083;-59
2022/01/31 06:55:25;;;;;;;7.05;2.05;;;;;;;-0.07;71.45;99769.84;5048120;28;20102;-59
2022/01/31 06:57:52;;;;;;;8.68;3.50;;;;;;;-0.07;71.51;99767.31;5047077;28;20075;-60
2022/01/31 07:00:20;;;;;;;10.48;2.47;;;;;;;-0.06;71.54;99766.47;5044073;28;20053;-59
2022/01/31 07:02:47;;;;;;;7.53;2.50;;;;;;;-0.04;71.42;99759.72;5043938;28;20421;-57
2022/01/31 07:05:14;;;;;;;6.97;3.03;;;;;;;-0.03;71.44;99776.72;5037212;28;20068;-57
2022/01/31 07:07:41;;;;;;;5.00;2.05;;;;;;;-0.01;71.66;99769.97;5050031;28;20071;-60
2022/01/31 07:10:09;;;;;;;6.63;2.50;;;;;;;0.03;71.56;99775.16;5049954;28;20537;-60
2022/01/31 07:12:39;;;;;;;9.43;2.45;;;;;;;0.07;71.46;99764.19;5045178;28;20049;-57
2022/01/31 07:15:08;;;;;;;9.07;2.10;;;;;;;0.09;71.46;99765.06;5046810;28;20052;-60
2022/01/31 07:17:35;;;;;;;9.05;2.92;;;;;;;0.12;71.39;99772.75;5047531;28;21337;-58
2022/01/31 07:20:03;;;;;;;11.23;3.30;;;;;;;0.14;71.50;99766.00;5047280;28;20060;-59
2022/01/31 07:22:35;;;;;;;12.32;3.42;;;;;;;0.19;71.57;99774.59;5045786;28;20048;-56
2022/01/31 07:25:04;;;;;;;14.90;2.95;;;;;;;0.23;71.39;99771.25;5048303;28;20048;-58
2022/01/31 07:27:31;;;;;;;18.17;3.00;;;;;;;0.29;71.22;99771.38;5048651;28;20044;-59
2022/01/31 07:29:59;;;;;;;27.75;3.75;;;;;;;0.34;71.20;99772.31;5045239;28;20513;-58
2022/01/31 07:32:25;;;;;;;24.23;2.72;;;;;;;0.38;71.37;99768.97;5048637;28;20305;-57
2022/01/31 07:34:55;;;;;;;12.48;3.10;;;;;;;0.42;71.20;99780.94;5045465;28;20060;-58
2022/01/31 07:37:22;;;;;;;8.30;2.75;;;;;;;0.46;71.14;99780.16;5048526;28;20094;-59
2022/01/31 07:39:48;;;;;;;15.15;3.03;;;;;;;0.51;71.18;99781.09;5048216;28;20059;-58
2022/01/31 07:42:15;;;;;;;23.05;3.35;;;;;;;0.56;71.01;99779.50;5044398;28;20417;-58
2022/01/31 07:44:41;;;;;;;16.98;3.20;;;;;;;0.60;70.94;99776.16;5047476;28;20048;-58
2022/01/31 07:47:09;;;;;;;14.25;2.97;;;;;;;0.64;70.77;99777.06;5047078;28;20049;-58
2022/01/31 07:49:36;;;;;;;26.70;3.47;;;;;;;0.68;70.84;99772.88;5045181;28;20064;-58
2022/01/31 07:52:03;;;;;;;23.65;4.13;;;;;;;0.73;70.61;99781.47;5046562;28;20455;-58
2022/01/31 07:54:30;;;;;;;12.23;3.08;;;;;;;0.77;70.43;99780.69;5048757;28;20421;-55
2022/01/31 07:56:57;;;;;;;16.30;4.47;;;;;;;0.83;70.24;99780.78;5047322;28;20057;-56
2022/01/31 07:59:24;;;;;;;13.98;2.53;;;;;;;0.88;70.17;99771.50;5051252;28;20052;-56
2022/01/31 08:01:51;;;;;;;14.30;2.85;;;;;;;0.92;69.87;99775.81;5048678;28;20059;-54
2022/01/31 08:04:18;;;;;;;20.27;4.05;;;;;;;0.95;69.90;99769.06;5046007;28;20053;-58
2022/01/31 08:06:45;;;;;;;10.88;2.60;;;;;;;1.01;70.00;99772.53;5045798;28;20048;-58
2022/01/31 08:09:11;;;;;;;11.15;2.63;;;;;;;1.04;69.76;99768.34;5050589;28;20056;-58
2022/01/31 08:11:38;;;;;;;15.05;3.08;;;;;;;1.08;69.64;99765.00;5048825;28;20072;-59
2022/01/31 08:14:08;;;;;;;9.52;3.13;;;;;;;1.12;69.76;99761.66;5044460;28;20119;-61
2022/01/31 08:16:35;;;;;;;11.68;2.83;;;;;;;1.16;69.45;99763.41;5046889;28;20139;-63
2022/01/31 08:19:02;;;;;;;8.00;2.38;;;;;;;1.21;69.46;99761.78;5045702;28;20056;-61
2022/01/31 08:21:30;;;;;;;6.15;2.10;;;;;;;1.25;69.46;99753.34;5045841;28;20049;-61
2022/01/31 08:23:56;;;;;;;7.07;2.25;;;;;;;1.29;69.19;99744.00;5048214;28;20041;-60
2022/01/31 08:26:23;;;;;;;8.30;2.63;;;;;;;1.34;69.07;99749.19;5045143;28;20525;-59
2022/01/31 08:28:56;;;;;;;15.80;3.33;;;;;;;1.39;69.03;99752.66;5048537;28;20055;-57
2022/01/31 08:31:28;;;;;;;10.40;2.33;;;;;;;1.45;68.69;99750.16;5048299;28;20131;-58
2022/01/31 08:34:06;;;;;;;9.43;3.00;;;;;;;1.51;68.22;99753.66;5044449;28;20056;-61
2022/01/31 08:36:35;;;;;;;9.35;2.63;;;;;;;1.59;68.00;99743.56;5042829;28;20069;-64
2022/01/31 08:39:08;;;;;;;11.00;3.33;;;;;;;1.67;68.19;99731.72;5044436;28;20402;-60
2022/01/31 08:41:36;;;;;;;9.32;2.58;;;;;;;1.73;67.86;99726.69;5045285;28;20049;-61
2022/01/31 08:44:03;;;;;;;6.32;2.08;;;;;;;1.80;67.48;99723.34;5046247;28;20429;-63
2022/01/31 08:46:30;;;;;;;9.65;2.17;;;;;;;1.87;67.53;99719.16;5044985;28;20060;-65
2022/01/31 08:48:58;;;;;;;7.03;2.22;;;;;;;1.94;67.19;99715.81;5046669;28;20558;-63
2022/01/31 08:51:24;;;;;;;6.75;2.10;;;;;;;2.01;66.58;99706.53;5046735;28;20044;-62
2022/01/31 08:53:52;;;;;;;7.88;1.83;;;;;;;2.07;65.88;99714.25;5044729;28;20053;-53
2022/01/31 08:56:20;;;;;;;5.97;1.50;;;;;;;2.09;65.67;99710.88;5049531;28;20413;-56
2022/01/31 08:58:48;;;;;;;6.22;1.80;;;;;;;2.14;65.57;99713.50;5050708;28;20056;-56
2022/01/31 09:01:18;;;;;;;6.03;2.15;;;;;;;2.17;64.46;99708.41;5048524;28;20048;-55
2022/01/31 09:04:01;;;;;;;6.32;1.80;;;;;;;2.19;64.85;99711.81;5044452;28;20040;-63
2022/01/31 09:06:29;;;;;;;7.32;2.17;;;;;;;2.22;64.53;99706.75;5043913;28;20060;-57
2022/01/31 09:08:58;;;;;;;10.95;2.28;;;;;;;2.26;63.98;99707.63;5042931;28;20053;-58
2022/01/31 09:11:25;;;;;;;3.88;1.70;;;;;;;2.25;63.75;99711.88;5047298;28;20065;-58
2022/01/31 09:13:52;;;;;;;7.32;2.28;;;;;;;2.20;63.90;99704.16;5044161;28;20044;-57
2022/01/31 09:16:19;;;;;;;4.78;1.52;;;;;;;2.22;64.14;99706.75;5043471;28;20057;-59
2022/01/31 09:18:46;;;;;;;8.85;1.88;;;;;;;2.23;63.97;99700.78;5045515;28;20399;-58
2022/01/31 09:21:12;;;;;;;7.65;2.05;;;;;;;2.28;63.70;99711.91;5046518;28;20502;-57
2022/01/31 09:23:39;;;;;;;5.65;2.35;;;;;;;2.30;63.69;99715.34;5044786;28;20071;-58
2022/01/31 09:26:06;;;;;;;6.18;1.80;;;;;;;2.31;63.81;99717.03;5047609;28;20049;-59
2022/01/31 09:28:33;;;;;;;5.95;1.67;;;;;;;2.30;63.10;99709.34;5046140;28;20413;-58
2022/01/31 09:31:00;;;;;;;7.25;1.80;;;;;;;2.29;63.47;99723.84;5046816;28;20049;-58
2022/01/31 09:33:27;;;;;;;7.50;1.70;;;;;;;2.26;63.38;99718.72;5043396;28;20061;-58
2022/01/31 09:35:54;;;;;;;4.03;1.98;;;;;;;2.28;63.80;99717.03;5040172;28;20054;-58
2022/01/31 09:38:24;;;;;;;12.02;3.33;;;;;;;2.30;64.12;99720.44;5047397;28;20056;-59
2022/01/31 09:40:53;;;;;;;10.27;3.22;;;;;;;2.31;63.77;99716.19;5044574;28;20098;-55
2022/01/31 09:46:19;;;;;;;7.50;1.70;;;;;;;2.37;63.07;99724.78;5042143;28;20198;-62
2022/01/31 09:48:48;;;;;;;4.72;1.70;;;;;;;2.37;62.78;99722.22;5044570;28;20041;-62
2022/01/31 09:51:17;;;;;;;9.00;2.65;;;;;;;2.31;62.55;99721.31;5044352;28;20878;-57
2022/01/31 09:53:46;;;;;;;6.35;2.70;;;;;;;2.26;62.74;99725.53;5043897;28;20048;-67
2022/01/31 09:56:15;;;;;;;8.48;2.08;;;;;;;2.24;62.51;99725.50;5043174;28;20497;-60
2022/01/31 09:58:44;;;;;;;5.30;2.08;;;;;;;2.21;63.12;99715.25;5045690;28;20056;-58
2022/01/31 10:01:12;;;;;;;4.88;1.33;;;;;;;2.21;62.77;99725.47;5048987;28;20045;-57
2022/01/31 10:03:47;;;;;;;7.50;2.03;;;;;;;2.22;63.12;99714.41;5046836;28;20063;-54
2022/01/31 10:06:22;;;;;;;7.78;2.20;;;;;;;2.25;62.41;99717.00;5047958;28;20052;-56
2022/01/31 10:08:59;;;;;;;8.40;2.33;;;;;;;2.24;62.40;99724.66;5041777;28;20044;-54
2022/01/31 10:11:27;;;;;;;10.13;2.15;;;;;;;2.25;63.28;99722.09;5045721;28;20048;-52
2022/01/31 10:16:46;;;;;;;10.93;3.22;;;;;;;2.33;63.31;99719.63;5042600;28;21803;-58
2022/01/31 10:19:15;;;;;;;13.35;4.00;;;;;;;2.33;62.84;99725.59;5042721;28;20055;-57
2022/01/31 10:22:01;;;;;;;5.82;1.92;;;;;;;2.40;63.25;99726.50;5043880;28;20074;-55
2022/01/31 10:24:29;;;;;;;6.85;1.83;;;;;;;2.45;63.34;99728.25;5043384;28;20053;-55
2022/01/31 10:26:56;;;;;;;4.85;1.67;;;;;;;2.50;62.78;99718.03;5043353;28;20056;-56
2022/01/31 10:29:26;;;;;;;8.07;1.90;;;;;;;2.53;61.67;99707.84;5042563;28;20052;-60
2022/01/31 10:32:01;;;;;;;4.03;1.20;;;;;;;2.53;60.92;99712.94;5044053;28;20091;-50
2022/01/31 10:34:28;;;;;;;8.25;2.00;;;;;;;2.48;61.67;99710.34;5045004;28;20048;-55
2022/01/31 10:36:55;;;;;;;19.75;3.25;;;;;;;2.48;61.54;99699.28;5044787;28;20067;-53
2022/01/31 10:45:26;;;;;;;18.40;3.60;;;;;;;2.50;61.06;99703.56;5043673;28;20115;-58
2022/01/31 10:53:40;;;;;;;3.92;1.27;;;;;;;2.60;60.39;99701.06;5026962;28;20068;-55
2022/01/31 10:56:06;;;;;;;4.38;1.48;;;;;;;2.67;60.91;99700.28;5043519;28;20056;-52
2022/01/31 10:58:33;;;;;;;4.75;1.50;;;;;;;2.75;60.46;99701.19;5043852;28;20664;-52
2022/01/31 11:01:13;;;;;;;10.90;1.95;;;;;;;2.83;59.61;99695.28;5045567;28;20064;-62
2022/01/31 11:03:40;;;;;;;8.40;1.90;;;;;;;2.92;59.79;99691.91;5043596;28;20053;-61
2022/01/31 11:06:09;;;;;;;6.47;2.13;;;;;;;3.03;59.12;99690.25;5042471;28;20679;-62
2022/01/31 11:08:36;;;;;;;5.57;1.55;;;;;;;3.12;59.36;99690.34;5045381;28;20394;-62
2022/01/31 11:11:03;;;;;;;6.25;1.48;;;;;;;3.24;59.61;99693.81;5044019;28;20493;-61
2022/01/31 11:13:32;;;;;;;9.02;2.17;;;;;;;3.32;58.55;99694.69;5040891;28;20049;-61
2022/01/31 11:15:59;;;;;;;8.95;1.92;;;;;;;3.41;58.42;99692.16;5039615;28;20048;-62
2022/01/31 11:18:30;;;;;;;3.70;1.70;;;;;;;3.47;57.59;99694.75;5042006;28;20052;-61
2022/01/31 11:21:00;;;;;;;9.30;2.13;;;;;;;3.52;57.53;99697.31;5043259;28;20056;-62
2022/01/31 11:23:29;;;;;;;5.55;1.60;;;;;;;3.57;57.89;99704.16;5044990;28;20144;-60
2022/01/31 11:25:59;;;;;;;4.50;1.27;;;;;;;3.65;57.78;99699.94;5046533;28;20052;-59
2022/01/31 11:28:29;;;;;;;9.55;2.97;;;;;;;3.74;57.33;99697.41;5044674;28;20060;-54
2022/01/31 11:30:57;;;;;;;4.40;1.65;;;;;;;3.79;56.22;99700.84;5047536;28;21447;-60
2022/01/31 11:33:24;;;;;;;6.15;1.95;;;;;;;3.84;56.94;99707.69;5051684;28;20060;-62
2022/01/31 11:35:53;;;;;;;5.95;1.88;;;;;;;3.88;56.85;99704.28;5047022;28;20060;-61
2022/01/31 11:38:19;;;;;;;21.17;3.33;;;;;;;3.95;57.40;99700.88;5048584;28;20044;-58
2022/01/31 11:40:47;;;;;;;6.43;1.75;;;;;;;4.02;56.98;99700.88;5051055;28;21052;-58
2022/01/31 11:43:15;;;;;;;8.40;1.88;;;;;;;4.08;56.81;99707.72;5049206;28;20135;-57
2022/01/31 11:45:44;;;;;;;6.10;2.13;;;;;;;4.09;56.38;99705.16;5049848;28;20048;-57
2022/01/31 11:48:13;;;;;;;5.28;2.00;;;;;;;4.13;56.00;99711.16;5051269;28;20049;-57
2022/01/31 11:50:44;;;;;;;7.72;1.90;;;;;;;4.07;54.83;99711.16;5050151;28;20481;-58
2022/01/31 11:53:12;;;;;;;3.72;1.30;;;;;;;4.01;54.37;99712.00;5045650;28;20067;-52
2022/01/31 11:55:39;;;;;;;3.05;1.40;;;;;;;3.95;54.19;99706.00;5046606;28;20508;-55
2022/01/31 11:58:07;;;;;;;3.17;1.02;;;;;;;3.88;53.61;99706.84;5047837;28;20135;-63
2022/01/31 12:00:37;;;;;;;5.68;1.50;;;;;;;3.77;53.31;99715.38;5046955;28;20127;-54